sensor_id;sensor_type;location;lat;lon;timestamp;P1;durP1;ratioP1;P2;durP2;ratioP2
44214;SDS011;29884;47.450;19.124;2023-02-21T00:02:30;13.02;;;7.32;;
44214;SDS011;29884;47.450;19.124;2023-02-21T00:05:14;9.15;;;6.00;;
44214;SDS011;29884;47.450;19.124;2023-02-21T00:07:59;11.07;;;6.20;;
44214;SDS011;29884;47.450;19.124;2023-02-21T00:10:44;11.07;;;6.35;;
44214;SDS011;29884;47.450;19.124;2023-02-21T00:13:28;9.82;;;5.70;;
44214;SDS011;29884;47.450;19.124;2023-02-21T00:16:16;7.28;;;4.32;;
44214;SDS011;29884;47.450;19.124;2023-02-21T00:19:00;6.30;;;3.20;;
44214;SDS011;29884;47.450;19.124;2023-02-21T00:21:47;6.93;;;3.17;;
44214;SDS011;29884;47.450;19.124;2023-02-21T00:24:31;5.60;;;2.85;;
44214;SDS011;29884;47.450;19.124;2023-02-21T00:27:16;4.90;;;2.97;;
44214;SDS011;29884;47.450;19.124;2023-02-21T00:30:00;4.75;;;2.25;;
44214;SDS011;29884;47.450;19.124;2023-02-21T00:32:44;4.18;;;2.28;;
44214;SDS011;29884;47.450;19.124;2023-02-21T00:35:29;5.10;;;2.67;;
44214;SDS011;29884;47.450;19.124;2023-02-21T00:38:13;6.53;;;2.30;;
44214;SDS011;29884;47.450;19.124;2023-02-21T00:40:57;5.55;;;2.65;;
44214;SDS011;29884;47.450;19.124;2023-02-21T00:43:42;4.85;;;2.65;;
44214;SDS011;29884;47.450;19.124;2023-02-21T00:46:26;7.13;;;2.85;;
44214;SDS011;29884;47.450;19.124;2023-02-21T00:49:10;4.35;;;3.03;;
44214;SDS011;29884;47.450;19.124;2023-02-21T00:51:55;6.63;;;3.55;;
44214;SDS011;29884;47.450;19.124;2023-02-21T00:54:39;6.70;;;3.83;;
44214;SDS011;29884;47.450;19.124;2023-02-21T00:57:24;7.00;;;3.90;;
44214;SDS011;29884;47.450;19.124;2023-02-21T01:00:12;6.65;;;4.10;;
44214;SDS011;29884;47.450;19.124;2023-02-21T01:03:01;10.68;;;3.95;;
44214;SDS011;29884;47.450;19.124;2023-02-21T01:05:45;6.72;;;4.22;;
44214;SDS011;29884;47.450;19.124;2023-02-21T01:08:30;10.57;;;5.18;;
44214;SDS011;29884;47.450;19.124;2023-02-21T01:11:15;8.48;;;4.60;;
44214;SDS011;29884;47.450;19.124;2023-02-21T01:14:00;7.47;;;5.50;;
44214;SDS011;29884;47.450;19.124;2023-02-21T01:16:45;8.02;;;5.22;;
44214;SDS011;29884;47.450;19.124;2023-02-21T01:19:29;9.70;;;6.68;;
44214;SDS011;29884;47.450;19.124;2023-02-21T01:22:14;10.75;;;6.97;;
44214;SDS011;29884;47.450;19.124;2023-02-21T01:24:58;12.27;;;6.95;;
44214;SDS011;29884;47.450;19.124;2023-02-21T01:27:42;12.93;;;7.70;;
44214;SDS011;29884;47.450;19.124;2023-02-21T01:30:27;14.48;;;8.30;;
44214;SDS011;29884;47.450;19.124;2023-02-21T01:33:11;13.23;;;8.20;;
44214;SDS011;29884;47.450;19.124;2023-02-21T01:35:55;18.75;;;8.40;;
44214;SDS011;29884;47.450;19.124;2023-02-21T01:38:40;13.20;;;7.65;;
44214;SDS011;29884;47.450;19.124;2023-02-21T01:41:24;15.60;;;8.02;;
44214;SDS011;29884;47.450;19.124;2023-02-21T01:47:14;10.20;;;6.60;;
44214;SDS011;29884;47.450;19.124;2023-02-21T01:50:00;14.98;;;7.80;;
44214;SDS011;29884;47.450;19.124;2023-02-21T01:52:47;12.63;;;7.13;;
44214;SDS011;29884;47.450;19.124;2023-02-21T01:55:33;9.77;;;6.47;;
44214;SDS011;29884;47.450;19.124;2023-02-21T01:58:21;11.93;;;6.70;;
44214;SDS011;29884;47.450;19.124;2023-02-21T02:01:08;11.50;;;6.35;;
44214;SDS011;29884;47.450;19.124;2023-02-21T02:03:59;7.95;;;4.78;;
44214;SDS011;29884;47.450;19.124;2023-02-21T02:06:44;5.32;;;3.42;;
44214;SDS011;29884;47.450;19.124;2023-02-21T02:09:28;5.47;;;2.28;;
44214;SDS011;29884;47.450;19.124;2023-02-21T02:15:13;3.83;;;1.15;;
44214;SDS011;29884;47.450;19.124;2023-02-21T02:34:48;2.60;;;1.02;;
44214;SDS011;29884;47.450;19.124;2023-02-21T02:48:17;2.45;;;1.05;;
44214;SDS011;29884;47.450;19.124;2023-02-21T02:50:48;2.40;;;1.10;;
44214;SDS011;29884;47.450;19.124;2023-02-21T02:53:17;3.60;;;1.25;;
44214;SDS011;29884;47.450;19.124;2023-02-21T02:55:52;1.75;;;1.15;;
44214;SDS011;29884;47.450;19.124;2023-02-21T02:58:25;2.05;;;1.00;;
44214;SDS011;29884;47.450;19.124;2023-02-21T03:01:07;3.63;;;1.00;;
44214;SDS011;29884;47.450;19.124;2023-02-21T03:06:50;1.42;;;0.80;;
44214;SDS011;29884;47.450;19.124;2023-02-21T03:09:38;1.73;;;0.90;;
44214;SDS011;29884;47.450;19.124;2023-02-21T03:15:18;1.98;;;0.80;;
44214;SDS011;29884;47.450;19.124;2023-02-21T03:17:50;2.95;;;0.95;;
44214;SDS011;29884;47.450;19.124;2023-02-21T03:20:37;1.52;;;0.90;;
44214;SDS011;29884;47.450;19.124;2023-02-21T03:23:05;2.33;;;0.90;;
44214;SDS011;29884;47.450;19.124;2023-02-21T03:25:33;3.53;;;0.80;;
44214;SDS011;29884;47.450;19.124;2023-02-21T03:28:00;1.50;;;0.80;;
44214;SDS011;29884;47.450;19.124;2023-02-21T03:30:27;2.35;;;0.70;;
44214;SDS011;29884;47.450;19.124;2023-02-21T03:32:53;2.97;;;0.80;;
44214;SDS011;29884;47.450;19.124;2023-02-21T03:35:20;1.42;;;0.80;;
44214;SDS011;29884;47.450;19.124;2023-02-21T03:37:50;3.85;;;0.90;;
44214;SDS011;29884;47.450;19.124;2023-02-21T03:40:19;1.75;;;0.70;;
44214;SDS011;29884;47.450;19.124;2023-02-21T03:42:50;1.75;;;0.70;;
44214;SDS011;29884;47.450;19.124;2023-02-21T03:45:17;3.10;;;1.00;;
44214;SDS011;29884;47.450;19.124;2023-02-21T03:47:43;2.05;;;0.98;;
44214;SDS011;29884;47.450;19.124;2023-02-21T03:50:09;3.30;;;0.65;;
44214;SDS011;29884;47.450;19.124;2023-02-21T03:52:35;3.92;;;0.80;;
44214;SDS011;29884;47.450;19.124;2023-02-21T03:55:01;1.95;;;0.60;;
44214;SDS011;29884;47.450;19.124;2023-02-21T03:57:27;1.95;;;0.50;;
44214;SDS011;29884;47.450;19.124;2023-02-21T03:59:53;2.00;;;0.55;;
44214;SDS011;29884;47.450;19.124;2023-02-21T04:02:18;1.33;;;0.60;;
44214;SDS011;29884;47.450;19.124;2023-02-21T04:04:44;1.70;;;0.52;;
44214;SDS011;29884;47.450;19.124;2023-02-21T04:07:13;2.20;;;0.57;;
44214;SDS011;29884;47.450;19.124;2023-02-21T04:09:39;2.55;;;0.70;;
44214;SDS011;29884;47.450;19.124;2023-02-21T04:12:06;1.73;;;0.60;;
44214;SDS011;29884;47.450;19.124;2023-02-21T04:14:31;1.48;;;0.50;;
44214;SDS011;29884;47.450;19.124;2023-02-21T04:16:57;2.50;;;0.80;;
44214;SDS011;29884;47.450;19.124;2023-02-21T04:19:23;2.75;;;0.80;;
44214;SDS011;29884;47.450;19.124;2023-02-21T04:21:49;2.63;;;0.90;;
44214;SDS011;29884;47.450;19.124;2023-02-21T04:24:14;3.67;;;1.00;;
44214;SDS011;29884;47.450;19.124;2023-02-21T04:26:40;1.05;;;0.60;;
44214;SDS011;29884;47.450;19.124;2023-02-21T04:29:06;1.27;;;0.50;;
44214;SDS011;29884;47.450;19.124;2023-02-21T04:31:32;1.42;;;0.40;;
44214;SDS011;29884;47.450;19.124;2023-02-21T04:33:58;1.63;;;0.60;;
44214;SDS011;29884;47.450;19.124;2023-02-21T04:36:24;1.40;;;0.40;;
44214;SDS011;29884;47.450;19.124;2023-02-21T04:38:50;1.15;;;0.43;;
44214;SDS011;29884;47.450;19.124;2023-02-21T04:41:16;2.78;;;0.85;;
44214;SDS011;29884;47.450;19.124;2023-02-21T04:43:43;2.75;;;0.40;;
44214;SDS011;29884;47.450;19.124;2023-02-21T04:46:09;0.90;;;0.40;;
44214;SDS011;29884;47.450;19.124;2023-02-21T04:48:39;1.20;;;0.50;;
44214;SDS011;29884;47.450;19.124;2023-02-21T04:51:06;2.38;;;0.60;;
44214;SDS011;29884;47.450;19.124;2023-02-21T04:53:32;1.83;;;0.50;;
44214;SDS011;29884;47.450;19.124;2023-02-21T04:55:58;3.47;;;0.60;;
44214;SDS011;29884;47.450;19.124;2023-02-21T04:58:23;1.77;;;0.60;;
44214;SDS011;29884;47.450;19.124;2023-02-21T05:00:49;1.80;;;0.60;;
44214;SDS011;29884;47.450;19.124;2023-02-21T05:03:15;1.50;;;0.57;;
44214;SDS011;29884;47.450;19.124;2023-02-21T05:05:42;1.83;;;0.45;;
44214;SDS011;29884;47.450;19.124;2023-02-21T05:08:08;1.35;;;0.50;;
44214;SDS011;29884;47.450;19.124;2023-02-21T05:10:33;2.10;;;0.50;;
44214;SDS011;29884;47.450;19.124;2023-02-21T05:12:59;1.55;;;0.43;;
44214;SDS011;29884;47.450;19.124;2023-02-21T05:15:25;2.20;;;0.50;;
44214;SDS011;29884;47.450;19.124;2023-02-21T05:17:51;1.15;;;0.50;;
44214;SDS011;29884;47.450;19.124;2023-02-21T05:20:17;1.00;;;0.45;;
44214;SDS011;29884;47.450;19.124;2023-02-21T05:22:43;1.38;;;0.40;;
44214;SDS011;29884;47.450;19.124;2023-02-21T05:25:18;2.40;;;0.50;;
44214;SDS011;29884;47.450;19.124;2023-02-21T05:27:46;1.52;;;0.50;;
44214;SDS011;29884;47.450;19.124;2023-02-21T05:30:13;2.10;;;0.47;;
44214;SDS011;29884;47.450;19.124;2023-02-21T05:32:40;1.45;;;0.85;;
44214;SDS011;29884;47.450;19.124;2023-02-21T05:35:07;1.30;;;0.50;;
44214;SDS011;29884;47.450;19.124;2023-02-21T05:37:34;1.50;;;0.50;;
44214;SDS011;29884;47.450;19.124;2023-02-21T05:40:00;1.83;;;0.60;;
44214;SDS011;29884;47.450;19.124;2023-02-21T05:42:26;2.03;;;0.60;;
44214;SDS011;29884;47.450;19.124;2023-02-21T05:44:52;0.85;;;0.50;;
44214;SDS011;29884;47.450;19.124;2023-02-21T05:47:17;2.13;;;0.68;;
44214;SDS011;29884;47.450;19.124;2023-02-21T05:49:43;2.15;;;0.80;;
44214;SDS011;29884;47.450;19.124;2023-02-21T05:52:10;1.58;;;0.50;;
44214;SDS011;29884;47.450;19.124;2023-02-21T05:54:36;2.17;;;0.45;;
44214;SDS011;29884;47.450;19.124;2023-02-21T05:57:02;1.33;;;0.50;;
44214;SDS011;29884;47.450;19.124;2023-02-21T05:59:28;1.55;;;0.60;;
44214;SDS011;29884;47.450;19.124;2023-02-21T06:01:54;4.38;;;0.82;;
44214;SDS011;29884;47.450;19.124;2023-02-21T06:04:21;2.13;;;0.80;;
44214;SDS011;29884;47.450;19.124;2023-02-21T06:06:47;1.15;;;0.52;;
44214;SDS011;29884;47.450;19.124;2023-02-21T06:09:13;2.63;;;0.60;;
44214;SDS011;29884;47.450;19.124;2023-02-21T06:11:39;2.70;;;0.60;;
44214;SDS011;29884;47.450;19.124;2023-02-21T06:14:06;2.08;;;0.60;;
44214;SDS011;29884;47.450;19.124;2023-02-21T06:16:34;1.33;;;0.50;;
44214;SDS011;29884;47.450;19.124;2023-02-21T06:19:01;1.40;;;0.50;;
44214;SDS011;29884;47.450;19.124;2023-02-21T06:21:28;1.90;;;0.50;;
44214;SDS011;29884;47.450;19.124;2023-02-21T06:23:54;1.25;;;0.50;;
44214;SDS011;29884;47.450;19.124;2023-02-21T06:26:20;1.45;;;0.60;;
44214;SDS011;29884;47.450;19.124;2023-02-21T06:28:46;1.20;;;0.50;;
44214;SDS011;29884;47.450;19.124;2023-02-21T06:31:13;1.40;;;0.50;;
44214;SDS011;29884;47.450;19.124;2023-02-21T06:33:39;3.60;;;0.70;;
44214;SDS011;29884;47.450;19.124;2023-02-21T06:36:05;3.78;;;0.60;;
44214;SDS011;29884;47.450;19.124;2023-02-21T06:38:34;3.35;;;0.50;;
44214;SDS011;29884;47.450;19.124;2023-02-21T06:41:03;2.33;;;0.55;;
44214;SDS011;29884;47.450;19.124;2023-02-21T06:43:30;1.67;;;0.60;;
44214;SDS011;29884;47.450;19.124;2023-02-21T06:45:56;1.77;;;0.68;;
44214;SDS011;29884;47.450;19.124;2023-02-21T06:48:22;1.42;;;0.55;;
44214;SDS011;29884;47.450;19.124;2023-02-21T06:50:48;4.55;;;0.60;;
44214;SDS011;29884;47.450;19.124;2023-02-21T06:53:13;1.42;;;0.52;;
44214;SDS011;29884;47.450;19.124;2023-02-21T06:55:39;1.85;;;0.60;;
44214;SDS011;29884;47.450;19.124;2023-02-21T06:58:05;1.92;;;0.50;;
44214;SDS011;29884;47.450;19.124;2023-02-21T07:00:31;2.72;;;0.60;;
44214;SDS011;29884;47.450;19.124;2023-02-21T07:02:56;3.45;;;0.50;;
44214;SDS011;29884;47.450;19.124;2023-02-21T07:05:22;1.15;;;0.55;;
44214;SDS011;29884;47.450;19.124;2023-02-21T07:07:48;1.67;;;0.50;;
44214;SDS011;29884;47.450;19.124;2023-02-21T07:10:14;0.80;;;0.47;;
44214;SDS011;29884;47.450;19.124;2023-02-21T07:12:39;1.38;;;0.57;;
44214;SDS011;29884;47.450;19.124;2023-02-21T07:15:05;3.50;;;0.60;;
44214;SDS011;29884;47.450;19.124;2023-02-21T07:17:31;3.33;;;0.77;;
44214;SDS011;29884;47.450;19.124;2023-02-21T07:19:57;1.73;;;0.60;;
44214;SDS011;29884;47.450;19.124;2023-02-21T07:22:23;3.15;;;0.60;;
44214;SDS011;29884;47.450;19.124;2023-02-21T07:24:53;3.05;;;0.60;;
44214;SDS011;29884;47.450;19.124;2023-02-21T07:27:20;0.63;;;0.40;;
44214;SDS011;29884;47.450;19.124;2023-02-21T07:29:46;2.15;;;0.50;;
44214;SDS011;29884;47.450;19.124;2023-02-21T07:32:13;1.70;;;0.50;;
44214;SDS011;29884;47.450;19.124;2023-02-21T07:34:40;1.75;;;0.55;;
44214;SDS011;29884;47.450;19.124;2023-02-21T07:37:06;2.28;;;0.50;;
44214;SDS011;29884;47.450;19.124;2023-02-21T07:39:32;1.15;;;0.50;;
44214;SDS011;29884;47.450;19.124;2023-02-21T07:41:57;1.67;;;0.60;;
44214;SDS011;29884;47.450;19.124;2023-02-21T07:44:23;0.85;;;0.50;;
44214;SDS011;29884;47.450;19.124;2023-02-21T07:46:49;3.22;;;0.60;;
44214;SDS011;29884;47.450;19.124;2023-02-21T07:49:15;2.22;;;0.50;;
44214;SDS011;29884;47.450;19.124;2023-02-21T07:51:41;1.50;;;0.50;;
44214;SDS011;29884;47.450;19.124;2023-02-21T07:54:07;2.35;;;0.40;;
44214;SDS011;29884;47.450;19.124;2023-02-21T07:56:33;1.60;;;0.50;;
44214;SDS011;29884;47.450;19.124;2023-02-21T07:58:58;3.33;;;0.60;;
44214;SDS011;29884;47.450;19.124;2023-02-21T08:01:24;1.67;;;0.50;;
44214;SDS011;29884;47.450;19.124;2023-02-21T08:03:50;1.27;;;0.40;;
44214;SDS011;29884;47.450;19.124;2023-02-21T08:06:16;1.75;;;0.60;;
44214;SDS011;29884;47.450;19.124;2023-02-21T08:08:43;1.85;;;0.50;;
44214;SDS011;29884;47.450;19.124;2023-02-21T08:11:09;3.67;;;0.50;;
44214;SDS011;29884;47.450;19.124;2023-02-21T08:13:35;2.95;;;0.57;;
44214;SDS011;29884;47.450;19.124;2023-02-21T08:16:01;2.10;;;0.60;;
44214;SDS011;29884;47.450;19.124;2023-02-21T08:18:27;2.95;;;0.40;;
44214;SDS011;29884;47.450;19.124;2023-02-21T08:20:53;3.33;;;0.60;;
44214;SDS011;29884;47.450;19.124;2023-02-21T08:23:21;1.65;;;0.60;;
44214;SDS011;29884;47.450;19.124;2023-02-21T08:25:47;1.75;;;0.60;;
44214;SDS011;29884;47.450;19.124;2023-02-21T08:28:13;3.17;;;0.52;;
44214;SDS011;29884;47.450;19.124;2023-02-21T08:30:39;1.52;;;0.70;;
44214;SDS011;29884;47.450;19.124;2023-02-21T08:33:05;1.98;;;0.60;;
44214;SDS011;29884;47.450;19.124;2023-02-21T08:35:31;1.52;;;0.60;;
44214;SDS011;29884;47.450;19.124;2023-02-21T08:37:56;1.38;;;0.50;;
44214;SDS011;29884;47.450;19.124;2023-02-21T08:40:27;1.38;;;0.70;;
44214;SDS011;29884;47.450;19.124;2023-02-21T08:42:55;2.88;;;0.55;;
44214;SDS011;29884;47.450;19.124;2023-02-21T08:45:21;0.98;;;0.40;;
44214;SDS011;29884;47.450;19.124;2023-02-21T08:47:48;1.67;;;0.60;;
44214;SDS011;29884;47.450;19.124;2023-02-21T08:50:15;1.92;;;0.40;;
44214;SDS011;29884;47.450;19.124;2023-02-21T08:52:44;5.05;;;0.52;;
44214;SDS011;29884;47.450;19.124;2023-02-21T08:55:10;1.60;;;0.60;;
44214;SDS011;29884;47.450;19.124;2023-02-21T08:57:36;1.52;;;0.50;;
44214;SDS011;29884;47.450;19.124;2023-02-21T09:00:03;3.13;;;1.05;;
44214;SDS011;29884;47.450;19.124;2023-02-21T09:02:35;2.65;;;0.52;;
44214;SDS011;29884;47.450;19.124;2023-02-21T09:05:09;3.22;;;0.50;;
44214;SDS011;29884;47.450;19.124;2023-02-21T09:07:37;2.00;;;0.55;;
44214;SDS011;29884;47.450;19.124;2023-02-21T09:10:03;1.92;;;0.50;;
44214;SDS011;29884;47.450;19.124;2023-02-21T09:12:30;3.35;;;0.43;;
44214;SDS011;29884;47.450;19.124;2023-02-21T09:14:55;4.05;;;0.60;;
44214;SDS011;29884;47.450;19.124;2023-02-21T09:17:21;2.40;;;0.60;;
44214;SDS011;29884;47.450;19.124;2023-02-21T09:19:47;1.65;;;0.70;;
44214;SDS011;29884;47.450;19.124;2023-02-21T09:22:13;3.00;;;0.98;;
44214;SDS011;29884;47.450;19.124;2023-02-21T09:24:40;2.72;;;0.65;;
44214;SDS011;29884;47.450;19.124;2023-02-21T09:27:06;1.92;;;0.50;;
44214;SDS011;29884;47.450;19.124;2023-02-21T09:29:32;1.67;;;0.50;;
44214;SDS011;29884;47.450;19.124;2023-02-21T09:32:00;1.45;;;0.40;;
44214;SDS011;29884;47.450;19.124;2023-02-21T09:34:26;1.52;;;0.55;;
44214;SDS011;29884;47.450;19.124;2023-02-21T09:36:53;1.83;;;0.60;;
44214;SDS011;29884;47.450;19.124;2023-02-21T09:39:19;1.13;;;0.40;;
44214;SDS011;29884;47.450;19.124;2023-02-21T09:41:46;8.88;;;0.52;;
44214;SDS011;29884;47.450;19.124;2023-02-21T09:44:15;3.50;;;0.50;;
44214;SDS011;29884;47.450;19.124;2023-02-21T09:46:48;2.10;;;0.80;;
44214;SDS011;29884;47.450;19.124;2023-02-21T09:49:20;0.90;;;0.50;;
44214;SDS011;29884;47.450;19.124;2023-02-21T09:51:53;1.23;;;0.40;;
44214;SDS011;29884;47.450;19.124;2023-02-21T09:54:34;1.65;;;0.50;;
44214;SDS011;29884;47.450;19.124;2023-02-21T09:57:04;0.90;;;0.47;;
44214;SDS011;29884;47.450;19.124;2023-02-21T09:59:35;1.90;;;0.40;;
44214;SDS011;29884;47.450;19.124;2023-02-21T10:09:55;2.10;;;0.70;;
44214;SDS011;29884;47.450;19.124;2023-02-21T10:12:37;1.02;;;0.57;;
44214;SDS011;29884;47.450;19.124;2023-02-21T10:20:56;2.28;;;0.43;;
44214;SDS011;29884;47.450;19.124;2023-02-21T10:23:30;1.55;;;0.50;;
44214;SDS011;29884;47.450;19.124;2023-02-21T10:26:12;4.05;;;0.50;;
44214;SDS011;29884;47.450;19.124;2023-02-21T10:28:42;2.45;;;0.40;;
44214;SDS011;29884;47.450;19.124;2023-02-21T10:31:14;1.77;;;0.50;;
44214;SDS011;29884;47.450;19.124;2023-02-21T10:33:46;1.02;;;0.43;;
44214;SDS011;29884;47.450;19.124;2023-02-21T10:36:20;0.93;;;0.50;;
44214;SDS011;29884;47.450;19.124;2023-02-21T10:41:38;3.20;;;0.60;;
44214;SDS011;29884;47.450;19.124;2023-02-21T10:44:15;1.50;;;0.55;;
44214;SDS011;29884;47.450;19.124;2023-02-21T10:52:17;0.80;;;0.40;;
44214;SDS011;29884;47.450;19.124;2023-02-21T10:55:46;1.92;;;0.50;;
44214;SDS011;29884;47.450;19.124;2023-02-21T10:57:43;2.08;;;0.50;;
44214;SDS011;29884;47.450;19.124;2023-02-21T11:03:14;1.35;;;0.50;;
44214;SDS011;29884;47.450;19.124;2023-02-21T11:05:54;1.90;;;0.50;;
44214;SDS011;29884;47.450;19.124;2023-02-21T11:08:38;3.38;;;1.42;;
44214;SDS011;29884;47.450;19.124;2023-02-21T11:11:05;1.88;;;0.40;;
44214;SDS011;29884;47.450;19.124;2023-02-21T11:13:32;1.90;;;0.50;;
44214;SDS011;29884;47.450;19.124;2023-02-21T11:16:15;0.88;;;0.50;;
44214;SDS011;29884;47.450;19.124;2023-02-21T11:18:42;3.40;;;0.40;;
44214;SDS011;29884;47.450;19.124;2023-02-21T11:21:10;1.50;;;0.40;;
44214;SDS011;29884;47.450;19.124;2023-02-21T11:23:37;1.45;;;0.50;;
44214;SDS011;29884;47.450;19.124;2023-02-21T11:26:10;1.15;;;0.52;;
44214;SDS011;29884;47.450;19.124;2023-02-21T11:28:40;2.15;;;0.60;;
44214;SDS011;29884;47.450;19.124;2023-02-21T11:31:12;2.40;;;0.60;;
44214;SDS011;29884;47.450;19.124;2023-02-21T11:34:00;2.10;;;0.60;;
44214;SDS011;29884;47.450;19.124;2023-02-21T11:36:40;0.82;;;0.50;;
44214;SDS011;29884;47.450;19.124;2023-02-21T11:41:56;2.42;;;0.50;;
44214;SDS011;29884;47.450;19.124;2023-02-21T11:44:37;1.10;;;0.47;;
44214;SDS011;29884;47.450;19.124;2023-02-21T11:55:12;5.57;;;0.73;;
44214;SDS011;29884;47.450;19.124;2023-02-21T12:30:09;2.35;;;0.70;;
44214;SDS011;29884;47.450;19.124;2023-02-21T12:38:21;2.33;;;0.80;;
44214;SDS011;29884;47.450;19.124;2023-02-21T13:00:21;2.63;;;0.50;;
44214;SDS011;29884;47.450;19.124;2023-02-21T13:05:32;3.15;;;0.65;;
44214;SDS011;29884;47.450;19.124;2023-02-21T13:13:26;2.38;;;0.50;;
44214;SDS011;29884;47.450;19.124;2023-02-21T13:15:56;2.72;;;0.57;;
44214;SDS011;29884;47.450;19.124;2023-02-21T13:21:01;1.45;;;0.57;;
44214;SDS011;29884;47.450;19.124;2023-02-21T13:23:45;1.25;;;0.45;;
44214;SDS011;29884;47.450;19.124;2023-02-21T13:26:43;1.75;;;0.60;;
44214;SDS011;29884;47.450;19.124;2023-02-21T13:29:26;2.83;;;0.60;;
44214;SDS011;29884;47.450;19.124;2023-02-21T13:31:58;2.17;;;0.73;;
44214;SDS011;29884;47.450;19.124;2023-02-21T13:34:28;1.60;;;0.60;;
44214;SDS011;29884;47.450;19.124;2023-02-21T13:37:00;1.67;;;0.50;;
44214;SDS011;29884;47.450;19.124;2023-02-21T13:39:31;0.80;;;0.50;;
44214;SDS011;29884;47.450;19.124;2023-02-21T13:47:14;1.00;;;0.60;;
44214;SDS011;29884;47.450;19.124;2023-02-21T13:49:52;2.03;;;0.57;;
44214;SDS011;29884;47.450;19.124;2023-02-21T13:52:27;1.33;;;0.60;;
44214;SDS011;29884;47.450;19.124;2023-02-21T14:02:57;1.58;;;0.65;;
44214;SDS011;29884;47.450;19.124;2023-02-21T14:06:18;1.10;;;0.43;;
44214;SDS011;29884;47.450;19.124;2023-02-21T14:08:25;2.28;;;0.52;;
44214;SDS011;29884;47.450;19.124;2023-02-21T14:11:11;2.50;;;0.60;;
44214;SDS011;29884;47.450;19.124;2023-02-21T14:13:53;4.15;;;0.70;;
44214;SDS011;29884;47.450;19.124;2023-02-21T14:16:23;2.03;;;0.50;;
44214;SDS011;29884;47.450;19.124;2023-02-21T14:19:09;0.80;;;0.50;;
44214;SDS011;29884;47.450;19.124;2023-02-21T14:21:42;1.20;;;0.43;;
44214;SDS011;29884;47.450;19.124;2023-02-21T14:31:44;5.20;;;0.80;;
44214;SDS011;29884;47.450;19.124;2023-02-21T14:34:11;1.52;;;0.80;;
44214;SDS011;29884;47.450;19.124;2023-02-21T14:36:38;0.90;;;0.50;;
44214;SDS011;29884;47.450;19.124;2023-02-21T14:39:06;1.52;;;0.40;;
44214;SDS011;29884;47.450;19.124;2023-02-21T14:41:35;1.05;;;0.40;;
44214;SDS011;29884;47.450;19.124;2023-02-21T14:55:21;1.02;;;0.40;;
44214;SDS011;29884;47.450;19.124;2023-02-21T15:03:41;1.17;;;0.40;;
44214;SDS011;29884;47.450;19.124;2023-02-21T15:06:17;0.90;;;0.40;;
44214;SDS011;29884;47.450;19.124;2023-02-21T15:08:47;1.10;;;0.50;;
44214;SDS011;29884;47.450;19.124;2023-02-21T15:11:28;1.23;;;0.50;;
44214;SDS011;29884;47.450;19.124;2023-02-21T15:14:10;1.25;;;0.40;;
44214;SDS011;29884;47.450;19.124;2023-02-21T15:16:38;1.10;;;0.60;;
44214;SDS011;29884;47.450;19.124;2023-02-21T15:19:14;1.00;;;0.50;;
44214;SDS011;29884;47.450;19.124;2023-02-21T15:27:32;0.90;;;0.50;;
44214;SDS011;29884;47.450;19.124;2023-02-21T15:30:32;3.30;;;0.60;;
44214;SDS011;29884;47.450;19.124;2023-02-21T15:33:06;2.60;;;0.40;;
44214;SDS011;29884;47.450;19.124;2023-02-21T15:38:21;0.80;;;0.40;;
44214;SDS011;29884;47.450;19.124;2023-02-21T15:40:53;1.58;;;0.47;;
44214;SDS011;29884;47.450;19.124;2023-02-21T15:43:27;2.35;;;0.50;;
44214;SDS011;29884;47.450;19.124;2023-02-21T15:48:24;1.67;;;0.45;;
44214;SDS011;29884;47.450;19.124;2023-02-21T15:50:50;1.25;;;0.63;;
44214;SDS011;29884;47.450;19.124;2023-02-21T15:55:47;3.58;;;0.50;;
44214;SDS011;29884;47.450;19.124;2023-02-21T15:58:24;3.13;;;0.50;;
44214;SDS011;29884;47.450;19.124;2023-02-21T16:01:07;1.65;;;0.50;;
44214;SDS011;29884;47.450;19.124;2023-02-21T16:03:38;2.58;;;0.50;;
44214;SDS011;29884;47.450;19.124;2023-02-21T16:11:46;3.15;;;0.43;;
44214;SDS011;29884;47.450;19.124;2023-02-21T16:16:46;4.22;;;0.63;;
44214;SDS011;29884;47.450;19.124;2023-02-21T16:19:18;3.22;;;0.50;;
44214;SDS011;29884;47.450;19.124;2023-02-21T16:21:45;1.33;;;0.50;;
44214;SDS011;29884;47.450;19.124;2023-02-21T16:24:30;2.45;;;0.50;;
44214;SDS011;29884;47.450;19.124;2023-02-21T16:27:15;4.25;;;0.80;;
44214;SDS011;29884;47.450;19.124;2023-02-21T16:29:42;4.15;;;0.80;;
44214;SDS011;29884;47.450;19.124;2023-02-21T16:32:17;1.15;;;0.65;;
44214;SDS011;29884;47.450;19.124;2023-02-21T16:34:46;4.97;;;0.77;;
44214;SDS011;29884;47.450;19.124;2023-02-21T16:37:14;4.22;;;0.60;;
44214;SDS011;29884;47.450;19.124;2023-02-21T16:39:40;3.55;;;0.73;;
44214;SDS011;29884;47.450;19.124;2023-02-21T16:42:06;2.10;;;0.68;;
44214;SDS011;29884;47.450;19.124;2023-02-21T16:44:35;5.47;;;0.60;;
44214;SDS011;29884;47.450;19.124;2023-02-21T16:47:00;2.53;;;0.68;;
44214;SDS011;29884;47.450;19.124;2023-02-21T16:49:26;6.57;;;0.70;;
44214;SDS011;29884;47.450;19.124;2023-02-21T16:51:52;4.97;;;0.57;;
44214;SDS011;29884;47.450;19.124;2023-02-21T16:54:18;3.97;;;0.50;;
44214;SDS011;29884;47.450;19.124;2023-02-21T16:56:45;3.58;;;0.50;;
44214;SDS011;29884;47.450;19.124;2023-02-21T16:59:15;3.75;;;0.40;;
44214;SDS011;29884;47.450;19.124;2023-02-21T17:01:44;1.00;;;0.50;;
44214;SDS011;29884;47.450;19.124;2023-02-21T17:04:14;0.70;;;0.38;;
44214;SDS011;29884;47.450;19.124;2023-02-21T17:06:50;2.70;;;0.40;;
44214;SDS011;29884;47.450;19.124;2023-02-21T17:09:25;1.08;;;0.40;;
44214;SDS011;29884;47.450;19.124;2023-02-21T17:11:52;1.50;;;0.40;;
44214;SDS011;29884;47.450;19.124;2023-02-21T17:14:18;1.02;;;0.30;;
44214;SDS011;29884;47.450;19.124;2023-02-21T17:16:45;1.33;;;0.40;;
44214;SDS011;29884;47.450;19.124;2023-02-21T17:19:14;0.90;;;0.40;;
44214;SDS011;29884;47.450;19.124;2023-02-21T17:21:42;2.65;;;0.40;;
44214;SDS011;29884;47.450;19.124;2023-02-21T17:24:09;2.00;;;0.50;;
44214;SDS011;29884;47.450;19.124;2023-02-21T17:26:36;1.55;;;0.50;;
44214;SDS011;29884;47.450;19.124;2023-02-21T17:29:03;1.65;;;0.60;;
44214;SDS011;29884;47.450;19.124;2023-02-21T17:31:29;1.35;;;0.40;;
44214;SDS011;29884;47.450;19.124;2023-02-21T17:33:55;1.45;;;0.50;;
44214;SDS011;29884;47.450;19.124;2023-02-21T17:36:22;1.67;;;0.43;;
44214;SDS011;29884;47.450;19.124;2023-02-21T17:38:49;3.60;;;0.80;;
44214;SDS011;29884;47.450;19.124;2023-02-21T17:41:15;2.22;;;0.60;;
44214;SDS011;29884;47.450;19.124;2023-02-21T17:43:41;2.15;;;0.60;;
44214;SDS011;29884;47.450;19.124;2023-02-21T17:46:08;1.67;;;0.47;;
44214;SDS011;29884;47.450;19.124;2023-02-21T17:48:36;1.25;;;0.57;;
44214;SDS011;29884;47.450;19.124;2023-02-21T17:51:04;0.93;;;0.47;;
44214;SDS011;29884;47.450;19.124;2023-02-21T17:53:30;3.53;;;0.55;;
44214;SDS011;29884;47.450;19.124;2023-02-21T17:55:56;1.45;;;0.55;;
44214;SDS011;29884;47.450;19.124;2023-02-21T17:58:24;1.95;;;0.60;;
44214;SDS011;29884;47.450;19.124;2023-02-21T18:00:50;1.48;;;0.60;;
44214;SDS011;29884;47.450;19.124;2023-02-21T18:03:19;5.93;;;1.50;;
44214;SDS011;29884;47.450;19.124;2023-02-21T18:05:45;3.30;;;1.00;;
44214;SDS011;29884;47.450;19.124;2023-02-21T18:08:11;4.60;;;1.40;;
44214;SDS011;29884;47.450;19.124;2023-02-21T18:10:37;2.08;;;1.00;;
44214;SDS011;29884;47.450;19.124;2023-02-21T18:13:03;3.50;;;1.10;;
44214;SDS011;29884;47.450;19.124;2023-02-21T18:15:28;1.70;;;0.82;;
44214;SDS011;29884;47.450;19.124;2023-02-21T18:17:55;1.50;;;0.70;;
44214;SDS011;29884;47.450;19.124;2023-02-21T18:20:22;1.85;;;0.80;;
44214;SDS011;29884;47.450;19.124;2023-02-21T18:22:48;2.03;;;0.80;;